Whitefish Falls, Canada
Current Conditions -  °F | °C
As of 12:00 PM on Saturday 20 Dec 2014 (Local Time) from CYZE Reporting Station
Overcast Overcast  
Wind Chill: 17°   Ceiling: 2200
Heat Index: 23°   Visibility: 7mi
Dew Point: 21°   Wind: 5mph
Humidity: 93%   Direction: 70°ENE
Pressure: 30.29"   Gusts: NA
Location:  46.1°N, 81.72°W
Report Text: CYZE 201700Z AUTO 07004KT 7SM SCT008 OVC022 M05/M06 A3029 RMK ICG SLP271
Loading
Personal Weather Stations






























Interactive Weather Map New forecast layout! Learn more

10-Day Weather Forecast

Advertisements
Track Severe Weather on mobile